AEE167 LGIO-LGAV
Flight info
| Callsign | AEE167 |
|---|---|
| Flight time | 0h 44m |
| Altitude | 23000 |
| Route | IBTIN L611 GARTA L53 PIKAD |
| Aircraft | A21N/M-SDE2E3FGHIJ1RWXY/LB1 |
Departure
| Time | 2026-05-05 06:04 |
|---|---|
| Airport | Ioannina King Pyrrhus National Airport (LGIO) |
Arrival
| Time | 2026-05-05 06:48 |
|---|---|
| Airport | Athens Eleftherios Venizelos International Airport (LGAV) |
| Time | Latitude | Longitude | Altitude | Speed | Heading |
|---|---|---|---|---|---|
| 2026-05-05 05:41 | 39.69332 | 20.82318 | 1565 ft | 0 kts | 268° |
| 2026-05-05 05:56 | 39.69332 | 20.82320 | 1565 ft | 2 kts | 268° |
| 2026-05-05 05:56 | 39.69333 | 20.82353 | 1565 ft | 4 kts | 263° |
| 2026-05-05 05:56 | 39.69338 | 20.82384 | 1565 ft | 4 kts | 245° |
| 2026-05-05 05:57 | 39.69350 | 20.82405 | 1565 ft | 4 kts | 176° |
| 2026-05-05 05:57 | 39.69355 | 20.82404 | 1565 ft | 0 kts | 141° |
| 2026-05-05 06:00 | 39.69351 | 20.82408 | 1565 ft | 3 kts | 141° |
| 2026-05-05 06:00 | 39.69323 | 20.82437 | 1565 ft | 8 kts | 141° |
| 2026-05-05 06:00 | 39.69278 | 20.82504 | 1565 ft | 12 kts | 115° |
| 2026-05-05 06:01 | 39.69242 | 20.82614 | 1566 ft | 14 kts | 113° |
| 2026-05-05 06:01 | 39.69200 | 20.82730 | 1568 ft | 15 kts | 124° |
| 2026-05-05 06:01 | 39.69117 | 20.82822 | 1568 ft | 17 kts | 142° |
| 2026-05-05 06:01 | 39.69016 | 20.82925 | 1568 ft | 17 kts | 142° |
| 2026-05-05 06:02 | 39.68949 | 20.82989 | 1568 ft | 12 kts | 152° |
| 2026-05-05 06:02 | 39.68883 | 20.83039 | 1566 ft | 10 kts | 85° |
| 2026-05-05 06:02 | 39.68911 | 20.83036 | 1567 ft | 5 kts | 302° |
| 2026-05-05 06:02 | 39.68924 | 20.83020 | 1567 ft | 0 kts | 319° |
| 2026-05-05 06:03 | 39.68929 | 20.83015 | 1567 ft | 8 kts | 319° |
| 2026-05-05 06:03 | 39.69181 | 20.82757 | 1569 ft | 81 kts | 322° |
| 2026-05-05 06:04 | 39.69772 | 20.82153 | 1567 ft | 134 kts | 322° |
| 2026-05-05 06:04 | 39.70614 | 20.81295 | 1698 ft | 164 kts | 322° |
| 2026-05-05 06:04 | 39.71490 | 20.80413 | 2455 ft | 157 kts | 322° |
| 2026-05-05 06:04 | 39.72272 | 20.79386 | 2937 ft | 169 kts | 311° |
| 2026-05-05 06:05 | 39.73061 | 20.78148 | 3257 ft | 188 kts | 310° |
| 2026-05-05 06:05 | 39.73931 | 20.76766 | 3573 ft | 206 kts | 309° |
| 2026-05-05 06:05 | 39.74862 | 20.75274 | 4017 ft | 218 kts | 309° |
| 2026-05-05 06:05 | 39.75824 | 20.73723 | 4618 ft | 223 kts | 309° |
| 2026-05-05 06:06 | 39.76799 | 20.72149 | 5377 ft | 224 kts | 309° |
| 2026-05-05 06:06 | 39.77786 | 20.70562 | 6117 ft | 227 kts | 309° |
| 2026-05-05 06:06 | 39.78790 | 20.68956 | 6849 ft | 230 kts | 309° |
| 2026-05-05 06:06 | 39.79807 | 20.67333 | 7571 ft | 233 kts | 310° |
| 2026-05-05 06:07 | 39.80835 | 20.65692 | 8294 ft | 235 kts | 309° |
| 2026-05-05 06:07 | 39.81578 | 20.63797 | 8988 ft | 241 kts | 281° |
| 2026-05-05 06:07 | 39.81494 | 20.61624 | 9661 ft | 246 kts | 252° |
| 2026-05-05 06:07 | 39.80595 | 20.59733 | 10372 ft | 251 kts | 223° |
| 2026-05-05 06:08 | 39.79074 | 20.58614 | 11092 ft | 256 kts | 193° |
| 2026-05-05 06:08 | 39.77294 | 20.58625 | 11776 ft | 260 kts | 161° |
| 2026-05-05 06:08 | 39.75751 | 20.59826 | 12431 ft | 262 kts | 129° |
| 2026-05-05 06:08 | 39.74877 | 20.61866 | 13083 ft | 261 kts | 104° |
| 2026-05-05 06:09 | 39.74339 | 20.64133 | 13784 ft | 264 kts | 104° |
| 2026-05-05 06:09 | 39.73796 | 20.66433 | 14447 ft | 268 kts | 104° |
| 2026-05-05 06:09 | 39.73242 | 20.68765 | 15107 ft | 272 kts | 104° |
| 2026-05-05 06:09 | 39.72676 | 20.71124 | 15747 ft | 275 kts | 104° |
| 2026-05-05 06:10 | 39.72097 | 20.73518 | 16374 ft | 279 kts | 104° |
| 2026-05-05 06:10 | 39.71509 | 20.75936 | 17006 ft | 282 kts | 104° |
| 2026-05-05 06:10 | 39.70913 | 20.78380 | 17596 ft | 286 kts | 104° |
| 2026-05-05 06:10 | 39.70309 | 20.80861 | 18171 ft | 290 kts | 104° |
| 2026-05-05 06:11 | 39.69625 | 20.83360 | 18609 ft | 303 kts | 114° |
| 2026-05-05 06:11 | 39.68309 | 20.85615 | 18831 ft | 323 kts | 139° |
| 2026-05-05 06:11 | 39.66364 | 20.87114 | 19281 ft | 330 kts | 162° |
| 2026-05-05 06:11 | 39.64104 | 20.87599 | 19792 ft | 331 kts | 185° |
| 2026-05-05 06:12 | 39.61878 | 20.86974 | 20329 ft | 327 kts | 208° |
| 2026-05-05 06:12 | 39.59855 | 20.85614 | 20855 ft | 330 kts | 208° |
| 2026-05-05 06:12 | 39.57626 | 20.84749 | 21219 ft | 345 kts | 188° |
| 2026-05-05 06:12 | 39.55175 | 20.85007 | 21351 ft | 365 kts | 169° |
| 2026-05-05 06:13 | 39.52666 | 20.85619 | 21469 ft | 379 kts | 172° |
| 2026-05-05 06:13 | 39.49977 | 20.86213 | 21600 ft | 394 kts | 172° |
| 2026-05-05 06:13 | 39.47270 | 20.86831 | 21726 ft | 407 kts | 172° |
| 2026-05-05 06:13 | 39.44445 | 20.87465 | 21975 ft | 416 kts | 172° |
| 2026-05-05 06:14 | 39.41578 | 20.88083 | 22409 ft | 420 kts | 172° |
| 2026-05-05 06:14 | 39.38638 | 20.88685 | 22853 ft | 423 kts | 173° |
| 2026-05-05 06:14 | 39.35716 | 20.89262 | 23122 ft | 426 kts | 173° |
| 2026-05-05 06:14 | 39.32813 | 20.89832 | 23179 ft | 416 kts | 173° |
| 2026-05-05 06:15 | 39.30007 | 20.90388 | 23186 ft | 411 kts | 173° |
| 2026-05-05 06:15 | 39.27189 | 20.90958 | 23190 ft | 410 kts | 173° |
| 2026-05-05 06:15 | 39.24374 | 20.91532 | 23183 ft | 410 kts | 173° |
| 2026-05-05 06:15 | 39.21557 | 20.92110 | 23183 ft | 410 kts | 173° |
| 2026-05-05 06:16 | 39.18743 | 20.92693 | 23183 ft | 410 kts | 173° |
| 2026-05-05 06:16 | 39.15926 | 20.93274 | 23169 ft | 410 kts | 173° |
| 2026-05-05 06:16 | 39.13113 | 20.93852 | 23177 ft | 410 kts | 173° |
| 2026-05-05 06:16 | 39.10295 | 20.94430 | 23173 ft | 410 kts | 173° |
| 2026-05-05 06:17 | 39.07481 | 20.95004 | 23183 ft | 410 kts | 173° |
| 2026-05-05 06:17 | 39.04664 | 20.95581 | 23186 ft | 410 kts | 172° |
| 2026-05-05 06:17 | 39.01903 | 20.96513 | 23183 ft | 412 kts | 160° |
| 2026-05-05 06:17 | 38.99330 | 20.98136 | 23192 ft | 413 kts | 147° |
| 2026-05-05 06:18 | 38.97066 | 21.00388 | 23189 ft | 412 kts | 135° |
| 2026-05-05 06:18 | 38.95201 | 21.03165 | 23189 ft | 410 kts | 123° |
| 2026-05-05 06:18 | 38.93619 | 21.06206 | 23189 ft | 410 kts | 122° |
| 2026-05-05 06:18 | 38.92035 | 21.09251 | 23185 ft | 410 kts | 122° |
| 2026-05-05 06:19 | 38.90447 | 21.12293 | 23189 ft | 410 kts | 122° |
| 2026-05-05 06:19 | 38.88858 | 21.15332 | 23191 ft | 410 kts | 122° |
| 2026-05-05 06:19 | 38.87288 | 21.18327 | 23192 ft | 410 kts | 122° |
| 2026-05-05 06:19 | 38.85694 | 21.21365 | 23193 ft | 411 kts | 122° |
| 2026-05-05 06:20 | 38.84101 | 21.24401 | 23197 ft | 410 kts | 122° |
| 2026-05-05 06:20 | 38.82508 | 21.27436 | 23196 ft | 410 kts | 122° |
| 2026-05-05 06:20 | 38.80915 | 21.30474 | 23193 ft | 410 kts | 122° |
| 2026-05-05 06:20 | 38.79324 | 21.33504 | 23191 ft | 409 kts | 122° |
| 2026-05-05 06:21 | 38.77732 | 21.36532 | 23190 ft | 409 kts | 122° |
| 2026-05-05 06:21 | 38.76139 | 21.39554 | 23187 ft | 410 kts | 122° |
| 2026-05-05 06:21 | 38.74544 | 21.42578 | 23190 ft | 409 kts | 122° |
| 2026-05-05 06:21 | 38.72950 | 21.45598 | 23193 ft | 409 kts | 122° |
| 2026-05-05 06:22 | 38.71357 | 21.48616 | 23191 ft | 409 kts | 122° |
| 2026-05-05 06:22 | 38.69760 | 21.51635 | 23188 ft | 409 kts | 122° |
| 2026-05-05 06:22 | 38.68165 | 21.54651 | 23186 ft | 409 kts | 122° |
| 2026-05-05 06:22 | 38.66569 | 21.57667 | 23184 ft | 409 kts | 122° |
| 2026-05-05 06:23 | 38.64979 | 21.60680 | 23179 ft | 409 kts | 122° |
| 2026-05-05 06:23 | 38.63387 | 21.63692 | 23187 ft | 409 kts | 122° |
| 2026-05-05 06:23 | 38.61793 | 21.66701 | 23183 ft | 409 kts | 122° |
| 2026-05-05 06:23 | 38.60196 | 21.69706 | 23173 ft | 408 kts | 122° |
| 2026-05-05 06:24 | 38.58601 | 21.72705 | 23182 ft | 408 kts | 123° |
| 2026-05-05 06:24 | 38.57001 | 21.75707 | 23184 ft | 408 kts | 123° |
| 2026-05-05 06:24 | 38.55401 | 21.78703 | 23184 ft | 408 kts | 123° |
| 2026-05-05 06:24 | 38.53803 | 21.81690 | 23178 ft | 408 kts | 123° |
| 2026-05-05 06:25 | 38.52199 | 21.84684 | 23179 ft | 408 kts | 123° |
| 2026-05-05 06:25 | 38.50602 | 21.87674 | 23181 ft | 407 kts | 122° |
| 2026-05-05 06:25 | 38.49008 | 21.90660 | 23177 ft | 407 kts | 122° |
| 2026-05-05 06:25 | 38.47412 | 21.93648 | 23185 ft | 407 kts | 123° |
| 2026-05-05 06:26 | 38.45838 | 21.96591 | 23170 ft | 407 kts | 123° |
| 2026-05-05 06:26 | 38.44242 | 21.99570 | 23167 ft | 407 kts | 123° |
| 2026-05-05 06:26 | 38.42645 | 22.02544 | 23176 ft | 407 kts | 123° |
| 2026-05-05 06:26 | 38.41044 | 22.05518 | 23172 ft | 407 kts | 123° |
| 2026-05-05 06:27 | 38.39422 | 22.08529 | 23174 ft | 406 kts | 123° |
| 2026-05-05 06:27 | 38.36245 | 22.14422 | 23166 ft | 406 kts | 123° |
| 2026-05-05 06:27 | 38.34646 | 22.17384 | 23166 ft | 406 kts | 123° |
| 2026-05-05 06:28 | 38.33046 | 22.20341 | 23165 ft | 406 kts | 123° |
| 2026-05-05 06:28 | 38.31443 | 22.23302 | 23168 ft | 406 kts | 123° |
| 2026-05-05 06:28 | 38.29843 | 22.26260 | 23166 ft | 406 kts | 123° |
| 2026-05-05 06:28 | 38.28245 | 22.29216 | 23166 ft | 405 kts | 123° |
| 2026-05-05 06:29 | 38.26649 | 22.32168 | 23169 ft | 405 kts | 123° |
| 2026-05-05 06:29 | 38.25049 | 22.35120 | 23167 ft | 405 kts | 123° |
| 2026-05-05 06:29 | 38.23448 | 22.38067 | 23169 ft | 405 kts | 123° |
| 2026-05-05 06:29 | 38.21844 | 22.41017 | 23159 ft | 405 kts | 123° |
| 2026-05-05 06:30 | 38.20242 | 22.43964 | 23166 ft | 405 kts | 123° |
| 2026-05-05 06:30 | 38.19179 | 22.45914 | 23158 ft | 405 kts | 123° |
| 2026-05-05 06:30 | 38.17577 | 22.48854 | 23149 ft | 404 kts | 123° |
| 2026-05-05 06:30 | 38.15989 | 22.51765 | 22903 ft | 396 kts | 123° |
| 2026-05-05 06:31 | 38.14439 | 22.54603 | 22633 ft | 387 kts | 123° |
| 2026-05-05 06:31 | 38.12908 | 22.57403 | 22190 ft | 385 kts | 123° |
| 2026-05-05 06:31 | 38.11384 | 22.60192 | 21731 ft | 383 kts | 123° |
| 2026-05-05 06:31 | 38.09867 | 22.62963 | 21271 ft | 382 kts | 123° |
| 2026-05-05 06:32 | 38.08355 | 22.65725 | 20802 ft | 380 kts | 123° |
| 2026-05-05 06:32 | 38.06851 | 22.68472 | 20357 ft | 378 kts | 123° |
| 2026-05-05 06:32 | 38.05356 | 22.71199 | 19944 ft | 375 kts | 123° |
| 2026-05-05 06:32 | 38.03870 | 22.73906 | 19524 ft | 372 kts | 123° |
| 2026-05-05 06:33 | 38.02392 | 22.76591 | 19094 ft | 370 kts | 123° |
| 2026-05-05 06:33 | 38.00927 | 22.79252 | 18669 ft | 367 kts | 123° |
| 2026-05-05 06:33 | 37.99477 | 22.81896 | 18245 ft | 364 kts | 123° |
| 2026-05-05 06:33 | 37.98038 | 22.84520 | 17828 ft | 361 kts | 123° |
| 2026-05-05 06:34 | 37.96606 | 22.87120 | 17426 ft | 359 kts | 123° |
| 2026-05-05 06:34 | 37.95181 | 22.89700 | 17005 ft | 356 kts | 123° |
| 2026-05-05 06:34 | 37.93765 | 22.92265 | 16588 ft | 354 kts | 123° |
| 2026-05-05 06:34 | 37.92570 | 22.94959 | 16142 ft | 351 kts | 111° |
| 2026-05-05 06:35 | 37.91638 | 22.97794 | 15775 ft | 347 kts | 110° |
| 2026-05-05 06:35 | 37.90707 | 23.00605 | 15376 ft | 345 kts | 110° |
| 2026-05-05 06:35 | 37.89778 | 23.03395 | 14982 ft | 343 kts | 110° |
| 2026-05-05 06:35 | 37.88852 | 23.06166 | 14584 ft | 340 kts | 110° |
| 2026-05-05 06:36 | 37.87933 | 23.08917 | 14184 ft | 338 kts | 110° |
| 2026-05-05 06:36 | 37.87021 | 23.11643 | 13789 ft | 336 kts | 110° |
| 2026-05-05 06:36 | 37.86111 | 23.14362 | 13395 ft | 334 kts | 110° |
| 2026-05-05 06:36 | 37.85208 | 23.17060 | 12998 ft | 332 kts | 110° |
| 2026-05-05 06:37 | 37.84309 | 23.19739 | 12614 ft | 330 kts | 110° |
| 2026-05-05 06:37 | 37.83414 | 23.22407 | 12216 ft | 329 kts | 109° |
| 2026-05-05 06:37 | 37.82524 | 23.25060 | 11824 ft | 327 kts | 109° |
| 2026-05-05 06:37 | 37.81648 | 23.27669 | 11436 ft | 326 kts | 109° |
| 2026-05-05 06:38 | 37.80765 | 23.30300 | 11037 ft | 325 kts | 109° |
| 2026-05-05 06:38 | 37.79884 | 23.32919 | 10640 ft | 322 kts | 109° |
| 2026-05-05 06:38 | 37.79018 | 23.35490 | 10474 ft | 313 kts | 109° |
| 2026-05-05 06:38 | 37.78183 | 23.37958 | 10099 ft | 301 kts | 109° |
| 2026-05-05 06:39 | 37.77366 | 23.40377 | 9552 ft | 296 kts | 109° |
| 2026-05-05 06:39 | 37.76675 | 23.42770 | 9089 ft | 284 kts | 98° |
| 2026-05-05 06:39 | 37.76408 | 23.45171 | 8717 ft | 271 kts | 90° |
| 2026-05-05 06:39 | 37.76228 | 23.47544 | 8421 ft | 268 kts | 91° |
| 2026-05-05 06:40 | 37.76044 | 23.49813 | 8263 ft | 253 kts | 91° |
| 2026-05-05 06:40 | 37.75865 | 23.51986 | 7966 ft | 243 kts | 91° |
| 2026-05-05 06:40 | 37.75693 | 23.54105 | 7852 ft | 243 kts | 91° |
| 2026-05-05 06:40 | 37.75523 | 23.56230 | 7622 ft | 245 kts | 91° |
| 2026-05-05 06:41 | 37.75352 | 23.58385 | 7256 ft | 247 kts | 91° |
| 2026-05-05 06:41 | 37.75181 | 23.60535 | 6925 ft | 248 kts | 91° |
| 2026-05-05 06:41 | 37.75010 | 23.62688 | 6621 ft | 243 kts | 91° |
| 2026-05-05 06:41 | 37.74839 | 23.64803 | 6122 ft | 243 kts | 92° |
| 2026-05-05 06:42 | 37.74665 | 23.66916 | 5672 ft | 241 kts | 92° |
| 2026-05-05 06:42 | 37.74492 | 23.69019 | 5150 ft | 240 kts | 92° |
| 2026-05-05 06:42 | 37.74325 | 23.71084 | 5005 ft | 231 kts | 92° |
| 2026-05-05 06:42 | 37.74166 | 23.73059 | 4898 ft | 221 kts | 92° |
| 2026-05-05 06:43 | 37.74097 | 23.74939 | 4802 ft | 207 kts | 79° |
| 2026-05-05 06:43 | 37.74462 | 23.76629 | 4680 ft | 194 kts | 61° |
| 2026-05-05 06:43 | 37.75192 | 23.77982 | 4474 ft | 183 kts | 43° |
| 2026-05-05 06:43 | 37.76174 | 23.78993 | 4246 ft | 182 kts | 34° |
| 2026-05-05 06:44 | 37.77191 | 23.79952 | 4003 ft | 182 kts | 34° |
| 2026-05-05 06:44 | 37.78205 | 23.80911 | 3773 ft | 182 kts | 34° |
| 2026-05-05 06:44 | 37.79222 | 23.81872 | 3533 ft | 182 kts | 34° |
| 2026-05-05 06:44 | 37.80239 | 23.82833 | 3289 ft | 183 kts | 34° |
| 2026-05-05 06:45 | 37.81258 | 23.83798 | 3042 ft | 183 kts | 34° |
| 2026-05-05 06:45 | 37.82279 | 23.84765 | 2794 ft | 184 kts | 33° |
| 2026-05-05 06:45 | 37.83311 | 23.85742 | 2558 ft | 186 kts | 34° |
| 2026-05-05 06:45 | 37.84345 | 23.86721 | 2310 ft | 184 kts | 34° |
| 2026-05-05 06:46 | 37.85365 | 23.87687 | 2058 ft | 182 kts | 35° |
| 2026-05-05 06:46 | 37.86365 | 23.88636 | 1835 ft | 175 kts | 37° |
| 2026-05-05 06:46 | 37.87304 | 23.89528 | 1623 ft | 161 kts | 37° |
| 2026-05-05 06:46 | 37.88159 | 23.90338 | 1415 ft | 149 kts | 38° |
| 2026-05-05 06:47 | 37.88974 | 23.91114 | 1185 ft | 145 kts | 38° |
| 2026-05-05 06:47 | 37.89774 | 23.91873 | 990 ft | 143 kts | 38° |
| 2026-05-05 06:47 | 37.90566 | 23.92621 | 809 ft | 142 kts | 38° |
| 2026-05-05 06:47 | 37.91351 | 23.93366 | 630 ft | 140 kts | 38° |
| 2026-05-05 06:48 | 37.92133 | 23.94110 | 431 ft | 140 kts | 38° |
| 2026-05-05 06:48 | 37.92904 | 23.94852 | 300 ft | 134 kts | 38° |
| 2026-05-05 06:48 | 37.93530 | 23.95444 | 283 ft | 88 kts | 37° |
| 2026-05-05 06:48 | 37.93818 | 23.95707 | 279 ft | 16 kts | 11° |
| 2026-05-05 06:49 | 37.93936 | 23.95720 | 284 ft | 16 kts | 7° |
| 2026-05-05 06:49 | 37.94026 | 23.95720 | 292 ft | 10 kts | 333° |
| 2026-05-05 06:49 | 37.94034 | 23.95651 | 296 ft | 10 kts | 238° |
| 2026-05-05 06:49 | 37.93958 | 23.95574 | 300 ft | 18 kts | 217° |
| 2026-05-05 06:50 | 37.93839 | 23.95462 | 299 ft | 24 kts | 217° |
| 2026-05-05 06:50 | 37.93702 | 23.95330 | 298 ft | 24 kts | 217° |
| 2026-05-05 06:50 | 37.93574 | 23.95210 | 301 ft | 20 kts | 217° |
| 2026-05-05 06:50 | 37.93456 | 23.95097 | 299 ft | 22 kts | 217° |
| 2026-05-05 06:51 | 37.93325 | 23.94974 | 301 ft | 25 kts | 217° |
| 2026-05-05 06:51 | 37.93211 | 23.94865 | 303 ft | 20 kts | 217° |
| 2026-05-05 06:51 | 37.93092 | 23.94752 | 302 ft | 23 kts | 217° |
| 2026-05-05 06:51 | 37.92960 | 23.94627 | 302 ft | 25 kts | 217° |
| 2026-05-05 06:52 | 37.92825 | 23.94499 | 302 ft | 21 kts | 218° |
| 2026-05-05 06:52 | 37.92813 | 23.94443 | 302 ft | 7 kts | 340° |
| 2026-05-05 06:52 | 37.92866 | 23.94385 | 302 ft | 12 kts | 306° |
| 2026-05-05 06:52 | 37.92902 | 23.94322 | 301 ft | 5 kts | 307° |
| 2026-05-05 06:53 | 37.92921 | 23.94311 | 301 ft | 3 kts | 11° |
| 2026-05-05 06:53 | 37.92954 | 23.94338 | 302 ft | 8 kts | 37° |
| 2026-05-05 06:53 | 37.92993 | 23.94375 | 303 ft | 2 kts | 37° |
| 2026-05-05 06:53 | 37.92995 | 23.94377 | 301 ft | 0 kts | 37° |
| 2026-05-05 07:25 | 37.92994 | 23.94376 | 301 ft | 1 kts | 37° |
| 2026-05-05 07:25 | 37.92976 | 23.94358 | 301 ft | 4 kts | 39° |
| 2026-05-05 07:26 | 37.92956 | 23.94338 | 300 ft | 4 kts | 43° |
| 2026-05-05 07:26 | 37.92938 | 23.94314 | 301 ft | 4 kts | 54° |
| 2026-05-05 07:26 | 37.92928 | 23.94288 | 301 ft | 4 kts | 95° |
| 2026-05-05 07:26 | 37.92930 | 23.94276 | 301 ft | 0 kts | 127° |
| 2026-05-05 07:30 | 37.92927 | 23.94282 | 303 ft | 3 kts | 127° |
| 2026-05-05 07:30 | 37.92858 | 23.94395 | 303 ft | 13 kts | 127° |